Time;durP1;ratioP1;P1;durP2;ratioP2;P2;SDS_P1;SDS_P2;PMS_P1;PMS_P2;Temp;Humidity;BMP_temperature;BMP_pressure;BME280_temperature;BME280_humidity;BME280_pressure;Samples;Min_cycle;Max_cycle;Signal;HPM_P1;HPM_P2
2021/06/21 00:02:05;;;;;;;2.50;1.07;;;;;;;;;;10358483;28;20041;-68
2021/06/21 00:07:02;;;;;;;2.67;1.00;;;;;;;;;;10331248;28;20044;-69
2021/06/21 00:12:00;;;;;;;2.47;1.07;;;;;;;;;;10354509;28;20494;-70
2021/06/21 00:16:57;;;;;;;1.67;1.00;;;;;;;;;;10344866;28;20338;-69
2021/06/21 00:22:01;;;;;;;2.40;1.13;;;;;;;;;;10393730;27;20488;-60
2021/06/21 00:26:58;;;;;;;2.75;1.13;;;;;;;;;;10320005;28;20412;-61
2021/06/21 00:31:56;;;;;;;4.90;1.07;;;;;;;;;;10293009;28;20029;-60
2021/06/21 00:36:53;;;;;;;2.23;0.70;;;;;;;;;;10308713;28;20025;-60
2021/06/21 00:41:51;;;;;;;2.77;0.97;;;;;;;;;;10310447;28;20199;-60
2021/06/21 00:46:48;;;;;;;3.23;1.00;;;;;;;;;;10307049;28;20543;-60
2021/06/21 00:51:46;;;;;;;3.03;0.97;;;;;;;;;;10307404;28;20386;-61
2021/06/21 00:56:43;;;;;;;2.37;0.80;;;;;;;;;;10323381;28;20569;-61
2021/06/21 01:01:41;;;;;;;0.80;0.80;;;;;;;;;;10316476;28;20289;-61
2021/06/21 01:06:38;;;;;;;1.67;0.90;;;;;;;;;;10311883;28;20028;-62
2021/06/21 01:11:56;;;;;;;3.27;1.10;;;;;;;;;;10313654;28;20512;-60
2021/06/21 01:17:01;;;;;;;1.40;0.80;;;;;;;;;;10308530;28;20099;-61
2021/06/21 01:22:02;;;;;;;1.15;0.70;;;;;;;;;;10338023;28;20033;-62
2021/06/21 01:27:11;;;;;;;1.95;0.60;;;;;;;;;;10358581;28;20436;-61
2021/06/21 01:32:18;;;;;;;1.60;0.90;;;;;;;;;;10316830;28;20322;-60
2021/06/21 01:37:16;;;;;;;1.85;0.77;;;;;;;;;;10340330;28;20033;-62
2021/06/21 01:42:20;;;;;;;3.00;0.77;;;;;;;;;;10343028;28;20037;-61
2021/06/21 01:47:17;;;;;;;1.60;0.80;;;;;;;;;;10328985;28;20421;-61
2021/06/21 01:52:16;;;;;;;1.87;0.60;;;;;;;;;;10341138;28;20033;-61
2021/06/21 01:57:14;;;;;;;0.68;0.63;;;;;;;;;;10339467;28;20052;-63
2021/06/21 02:02:11;;;;;;;;;;;;;;;;;;10357423;28;20037;-62
2021/06/21 02:07:10;;;;;;;3.97;0.77;;;;;;;;;;10326170;28;19912;-60
2021/06/21 02:12:08;;;;;;;2.63;0.80;;;;;;;;;;10354016;28;20071;-61
2021/06/21 02:17:06;;;;;;;1.17;0.63;;;;;;;;;;10334117;28;20321;-61
2021/06/21 02:22:03;;;;;;;2.33;1.00;;;;;;;;;;10354471;28;20036;-62
2021/06/21 02:27:02;;;;;;;2.30;0.80;;;;;;;;;;10346238;28;20274;-62
2021/06/21 02:31:59;;;;;;;;;;;;;;;;;;10350631;28;20502;-61
2021/06/21 02:36:57;;;;;;;4.05;1.20;;;;;;;;;;10359509;28;19919;-61
2021/06/21 02:41:54;;;;;;;4.67;0.80;;;;;;;;;;10348870;28;20037;-62
2021/06/21 02:46:51;;;;;;;2.43;1.10;;;;;;;;;;10332114;28;20033;-62
2021/06/21 02:51:55;;;;;;;3.27;0.87;;;;;;;;;;10360350;28;20051;-62
2021/06/21 02:57:11;;;;;;;2.72;1.00;;;;;;;;;;10345153;28;20055;-62
2021/06/21 03:02:09;;;;;;;4.22;1.48;;;;;;;;;;10356019;28;20028;-62
2021/06/21 03:07:07;;;;;;;1.50;0.68;;;;;;;;;;10369137;28;20075;-62
2021/06/21 03:12:05;;;;;;;;;;;;;;;;;;10361207;28;20047;-62
2021/06/21 03:17:06;;;;;;;1.20;0.90;;;;;;;;;;10347307;28;19931;-61
2021/06/21 03:22:04;;;;;;;1.63;0.77;;;;;;;;;;10363175;28;20045;-61
2021/06/21 03:27:02;;;;;;;2.17;0.93;;;;;;;;;;10352929;28;20048;-61
2021/06/21 03:32:09;;;;;;;1.42;0.80;;;;;;;;;;10360375;28;20755;-61
2021/06/21 03:37:06;;;;;;;2.90;0.80;;;;;;;;;;10350137;28;20142;-61
2021/06/21 03:42:04;;;;;;;1.43;0.57;;;;;;;;;;10367595;28;20142;-62
2021/06/21 03:47:01;;;;;;;3.70;1.03;;;;;;;;;;10333969;28;20456;-61
2021/06/21 03:51:59;;;;;;;1.60;0.87;;;;;;;;;;10341656;28;20115;-62
2021/06/21 03:56:56;;;;;;;1.33;0.80;;;;;;;;;;10360519;28;20462;-61
2021/06/21 04:01:55;;;;;;;2.77;0.97;;;;;;;;;;10338136;28;20116;-61
2021/06/21 04:06:52;;;;;;;;;;;;;;;;;;10329552;28;20048;-62
2021/06/21 04:11:50;;;;;;;3.80;1.10;;;;;;;;;;10337069;28;19939;-61
2021/06/21 04:16:48;;;;;;;1.88;1.05;;;;;;;;;;10335539;28;20020;-60
2021/06/21 04:21:45;;;;;;;1.60;1.00;;;;;;;;;;10341417;28;20025;-60
2021/06/21 04:26:43;;;;;;;3.37;1.33;;;;;;;;;;10348445;28;20030;-60
2021/06/21 04:31:40;;;;;;;3.17;1.10;;;;;;;;;;10298041;28;20031;-60
2021/06/21 04:36:38;;;;;;;4.30;1.10;;;;;;;;;;10323437;28;20025;-61
2021/06/21 04:41:35;;;;;;;2.67;1.00;;;;;;;;;;10323137;28;20078;-62
2021/06/21 04:46:34;;;;;;;3.60;1.47;;;;;;;;;;10327477;28;20432;-60
2021/06/21 04:51:32;;;;;;;3.00;0.90;;;;;;;;;;10343263;28;20501;-60
2021/06/21 04:56:30;;;;;;;2.42;1.00;;;;;;;;;;10349763;28;20052;-61
2021/06/21 05:01:27;;;;;;;2.97;1.30;;;;;;;;;;10332623;28;20785;-61
2021/06/21 05:06:25;;;;;;;2.60;1.10;;;;;;;;;;10367281;28;20028;-61
2021/06/21 05:11:22;;;;;;;1.50;0.87;;;;;;;;;;10368078;28;20459;-62
2021/06/21 05:16:20;;;;;;;2.40;1.67;;;;;;;;;;10353827;28;20049;-62
2021/06/21 05:21:17;;;;;;;2.60;1.00;;;;;;;;;;10351108;28;20516;-61
2021/06/21 05:26:15;;;;;;;2.47;1.07;;;;;;;;;;10360409;28;20416;-62
2021/06/21 05:31:12;;;;;;;1.93;1.33;;;;;;;;;;10348368;28;20048;-61
2021/06/21 05:36:10;;;;;;;1.73;1.33;;;;;;;;;;10347377;28;20511;-61
2021/06/21 05:41:08;;;;;;;1.65;1.40;;;;;;;;;;10313350;28;20033;-62
2021/06/21 05:46:05;;;;;;;3.47;1.60;;;;;;;;;;10296724;28;20514;-62
2021/06/21 05:51:03;;;;;;;2.07;0.93;;;;;;;;;;10311865;28;20060;-62
2021/06/21 05:56:01;;;;;;;3.27;1.20;;;;;;;;;;10313031;28;20581;-62
2021/06/21 06:00:58;;;;;;;3.20;1.67;;;;;;;;;;10330568;28;20455;-62
2021/06/21 06:05:56;;;;;;;3.10;1.40;;;;;;;;;;10325144;28;20033;-61
2021/06/21 06:10:53;;;;;;;2.63;1.30;;;;;;;;;;10318048;28;20229;-61
2021/06/21 06:15:51;;;;;;;3.20;1.57;;;;;;;;;;10319531;28;20051;-61
2021/06/21 06:20:48;;;;;;;2.60;1.20;;;;;;;;;;10308897;28;20496;-61
2021/06/21 06:25:46;;;;;;;3.67;1.77;;;;;;;;;;10306080;28;20741;-61
2021/06/21 06:30:43;;;;;;;5.77;1.50;;;;;;;;;;10307665;28;20067;-62
2021/06/21 06:35:41;;;;;;;2.70;1.53;;;;;;;;;;10323645;28;20036;-61
2021/06/21 06:40:38;;;;;;;1.73;1.30;;;;;;;;;;10319758;28;20037;-61
2021/06/21 06:45:36;;;;;;;2.57;1.23;;;;;;;;;;10330078;28;20033;-61
2021/06/21 06:50:34;;;;;;;3.40;1.30;;;;;;;;;;10320286;28;20451;-61
2021/06/21 07:00:49;;;;;;;3.40;1.42;;;;;;;;;;10321849;28;20449;-61
2021/06/21 07:05:46;;;;;;;2.83;1.27;;;;;;;;;;10315350;28;20515;-61
2021/06/21 07:10:44;;;;;;;3.20;1.30;;;;;;;;;;10316775;28;20421;-62
2021/06/21 07:15:41;;;;;;;3.00;1.20;;;;;;;;;;10325501;28;20037;-62
2021/06/21 07:20:39;;;;;;;1.97;1.40;;;;;;;;;;10320366;28;20029;-61
2021/06/21 07:25:36;;;;;;;4.30;1.43;;;;;;;;;;10325071;28;20381;-62
2021/06/21 07:30:35;;;;;;;4.43;1.40;;;;;;;;;;10305726;28;20044;-61
2021/06/21 07:35:32;;;;;;;2.97;1.25;;;;;;;;;;10305080;28;20422;-62
2021/06/21 07:40:30;;;;;;;3.00;1.20;;;;;;;;;;10331970;28;20063;-62
2021/06/21 07:45:27;;;;;;;1.57;1.27;;;;;;;;;;10272874;28;20540;-61
2021/06/21 07:50:28;;;;;;;3.70;1.23;;;;;;;;;;10305542;28;20421;-63
2021/06/21 07:55:27;;;;;;;2.33;1.30;;;;;;;;;;10326877;28;20521;-61
2021/06/21 08:00:25;;;;;;;2.17;0.70;;;;;;;;;;10312679;28;20499;-61
2021/06/21 08:05:23;;;;;;;2.43;1.40;;;;;;;;;;10322770;28;20047;-61
2021/06/21 08:10:21;;;;;;;2.28;1.20;;;;;;;;;;10329319;28;20370;-62
2021/06/21 08:15:18;;;;;;;2.27;1.33;;;;;;;;;;10311054;28;20029;-61
2021/06/21 08:20:16;;;;;;;4.03;1.30;;;;;;;;;;10306570;28;20048;-62
2021/06/21 08:25:14;;;;;;;3.13;1.20;;;;;;;;;;10322306;28;20591;-61
2021/06/21 08:30:12;;;;;;;3.80;1.08;;;;;;;;;;10319247;28;20025;-61
2021/06/21 08:35:10;;;;;;;2.97;1.10;;;;;;;;;;10304221;28;20029;-61
2021/06/21 08:40:09;;;;;;;6.03;1.40;;;;;;;;;;10324995;28;20048;-61
2021/06/21 08:45:07;;;;;;;3.45;0.90;;;;;;;;;;10316724;28;20037;-62
2021/06/21 08:50:06;;;;;;;2.08;1.10;;;;;;;;;;10328965;28;20028;-62
2021/06/21 08:55:05;;;;;;;3.83;1.40;;;;;;;;;;10333786;28;20092;-62
2021/06/21 09:00:04;;;;;;;3.75;1.30;;;;;;;;;;10328438;28;20059;-62
2021/06/21 09:05:04;;;;;;;2.83;0.88;;;;;;;;;;10312293;28;20032;-61
2021/06/21 09:10:08;;;;;;;2.03;1.02;;;;;;;;;;10330823;28;20029;-60
2021/06/21 09:15:09;;;;;;;2.03;1.10;;;;;;;;;;10310513;28;20040;-61
2021/06/21 09:20:09;;;;;;;3.85;0.88;;;;;;;;;;10325771;28;20037;-62
2021/06/21 09:25:21;;;;;;;3.30;1.42;;;;;;;;;;10328603;28;20041;-61
2021/06/21 09:30:19;;;;;;;2.28;0.98;;;;;;;;;;10323572;28;20037;-62
2021/06/21 09:35:26;;;;;;;2.65;1.00;;;;;;;;;;10319664;28;20106;-61
2021/06/21 09:40:44;;;;;;;2.70;0.90;;;;;;;;;;10302236;28;20044;-61
2021/06/21 09:45:59;;;;;;;2.05;1.00;;;;;;;;;;10338387;28;20152;-61
2021/06/21 09:50:57;;;;;;;2.72;1.00;;;;;;;;;;10331947;28;20149;-61
2021/06/21 09:55:55;;;;;;;1.33;0.73;;;;;;;;;;10333245;28;20101;-62
2021/06/21 10:01:06;;;;;;;1.73;1.10;;;;;;;;;;10313380;28;20033;-62
2021/06/21 10:06:05;;;;;;;1.58;0.73;;;;;;;;;;10321112;28;20024;-61
2021/06/21 10:11:26;;;;;;;3.13;1.25;;;;;;;;;;10305721;28;20738;-62
2021/06/21 10:16:24;;;;;;;2.95;1.00;;;;;;;;;;10325061;28;20369;-61
2021/06/21 10:21:23;;;;;;;3.20;1.10;;;;;;;;;;10321347;28;20059;-61
2021/06/21 10:26:21;;;;;;;2.40;0.95;;;;;;;;;;10322261;28;20103;-61
2021/06/21 10:31:22;;;;;;;2.47;0.93;;;;;;;;;;10311278;28;20620;-62
2021/06/21 10:36:19;;;;;;;1.38;0.52;;;;;;;;;;10322022;28;20714;-61
2021/06/21 10:41:17;;;;;;;4.67;0.97;;;;;;;;;;10302396;28;20024;-61
2021/06/21 10:46:14;;;;;;;0.60;0.20;;;;;;;;;;10288369;28;20893;-61
2021/06/21 10:51:28;;;;;;;1.80;0.77;;;;;;;;;;10295416;28;20448;-61
2021/06/21 10:56:40;;;;;;;1.95;0.98;;;;;;;;;;10295303;28;20037;-62
2021/06/21 11:01:45;;;;;;;0.63;0.52;;;;;;;;;;10321074;28;20031;-62
2021/06/21 11:06:43;;;;;;;1.00;0.65;;;;;;;;;;10334018;28;20056;-61
2021/06/21 11:11:43;;;;;;;2.67;0.63;;;;;;;;;;10328868;28;20472;-62
2021/06/21 11:16:42;;;;;;;0.65;0.57;;;;;;;;;;10353701;28;20068;-62
2021/06/21 11:21:45;;;;;;;1.27;0.60;;;;;;;;;;10351126;28;20067;-62
2021/06/21 11:26:59;;;;;;;1.88;0.80;;;;;;;;;;10339044;28;20052;-62
2021/06/21 11:31:57;;;;;;;0.85;0.70;;;;;;;;;;10350078;28;20036;-62
2021/06/21 11:36:54;;;;;;;1.15;0.60;;;;;;;;;;10323271;28;20044;-62
2021/06/21 11:42:04;;;;;;;1.17;0.70;;;;;;;;;;10335945;28;20129;-62
2021/06/21 11:47:01;;;;;;;1.15;0.70;;;;;;;;;;10346897;28;20055;-61
2021/06/21 11:52:00;;;;;;;1.27;0.70;;;;;;;;;;10335625;28;20029;-61
2021/06/21 11:57:02;;;;;;;0.28;0.22;;;;;;;;;;10324129;28;20309;-62
2021/06/21 12:02:00;;;;;;;0.30;0.20;;;;;;;;;;10329507;28;20392;-62
2021/06/21 12:06:57;;;;;;;1.13;0.70;;;;;;;;;;10325417;28;20086;-61
2021/06/21 12:11:55;;;;;;;1.07;0.53;;;;;;;;;;10353690;28;20406;-61
2021/06/21 12:17:03;;;;;;;0.50;0.33;;;;;;;;;;10319986;28;20042;-63
2021/06/21 12:22:02;;;;;;;2.60;0.40;;;;;;;;;;10334883;28;20390;-62
2021/06/21 12:27:04;;;;;;;0.85;0.65;;;;;;;;;;10352341;28;20279;-60
2021/06/21 12:32:06;;;;;;;0.75;0.50;;;;;;;;;;10351253;28;20131;-62
2021/06/21 12:37:13;;;;;;;2.70;0.80;;;;;;;;;;10319614;28;20146;-62
2021/06/21 12:42:11;;;;;;;0.60;0.38;;;;;;;;;;10335767;28;20072;-62
2021/06/21 12:47:15;;;;;;;1.25;0.73;;;;;;;;;;10335254;28;20439;-61
2021/06/21 12:52:12;;;;;;;1.67;0.75;;;;;;;;;;10297193;28;20053;-61
2021/06/21 12:57:10;;;;;;;2.93;0.70;;;;;;;;;;10314701;28;20040;-62
2021/06/21 13:02:27;;;;;;;0.87;0.67;;;;;;;;;;10328015;28;20162;-61
2021/06/21 13:07:27;;;;;;;2.65;0.52;;;;;;;;;;10330354;28;20051;-62
2021/06/21 13:12:24;;;;;;;2.13;0.60;;;;;;;;;;10340023;28;20063;-62
2021/06/21 13:17:25;;;;;;;0.30;0.30;;;;;;;;;;10330910;28;20638;-62
2021/06/21 13:22:44;;;;;;;0.13;0.13;;;;;;;;;;10321556;28;20060;-61
2021/06/21 13:27:56;;;;;;;2.53;0.47;;;;;;;;;;10325344;28;20036;-60
2021/06/21 13:32:55;;;;;;;2.17;0.70;;;;;;;;;;10350664;28;20028;-61
2021/06/21 13:37:53;;;;;;;2.15;0.85;;;;;;;;;;10318151;28;20035;-61
2021/06/21 13:42:51;;;;;;;1.50;0.30;;;;;;;;;;10310545;28;20028;-61
2021/06/21 13:48:10;;;;;;;1.42;0.65;;;;;;;;;;10314518;28;20360;-61
2021/06/21 13:53:24;;;;;;;1.20;0.20;;;;;;;;;;10313715;28;20140;-62
2021/06/21 13:58:33;;;;;;;1.55;0.60;;;;;;;;;;10337705;28;20045;-61
2021/06/21 14:03:31;;;;;;;0.93;0.65;;;;;;;;;;10355298;28;20020;-61
2021/06/21 14:08:29;;;;;;;2.08;0.57;;;;;;;;;;10329481;28;20786;-60
2021/06/21 14:13:27;;;;;;;1.00;0.55;;;;;;;;;;10319994;28;20075;-61
2021/06/21 14:18:29;;;;;;;1.87;0.57;;;;;;;;;;10346166;28;20041;-60
2021/06/21 14:23:27;;;;;;;0.60;0.60;;;;;;;;;;10342323;28;20045;-62
2021/06/21 14:28:25;;;;;;;1.53;0.87;;;;;;;;;;10339222;28;20044;-63
2021/06/21 14:33:22;;;;;;;1.53;0.50;;;;;;;;;;10348690;28;20039;-60
2021/06/21 14:38:20;;;;;;;3.37;0.80;;;;;;;;;;10335565;28;20032;-61
2021/06/21 14:43:18;;;;;;;1.07;0.60;;;;;;;;;;10338935;28;20028;-61
2021/06/21 14:48:16;;;;;;;0.97;0.60;;;;;;;;;;10328732;28;20358;-60
2021/06/21 14:53:13;;;;;;;1.85;0.73;;;;;;;;;;10325474;28;20128;-60
2021/06/21 14:58:11;;;;;;;0.67;0.60;;;;;;;;;;10331319;28;20040;-60
2021/06/21 15:03:15;;;;;;;2.25;0.73;;;;;;;;;;10337527;28;20071;-62
2021/06/21 15:08:13;;;;;;;2.05;0.68;;;;;;;;;;10326511;28;20052;-61
2021/06/21 15:13:11;;;;;;;1.38;0.40;;;;;;;;;;10341461;28;20111;-61
2021/06/21 15:18:09;;;;;;;0.97;0.60;;;;;;;;;;10338218;28;20593;-60
2021/06/21 15:23:07;;;;;;;3.83;0.60;;;;;;;;;;10329504;28;20486;-59
2021/06/21 15:28:04;;;;;;;1.65;0.60;;;;;;;;;;10326465;28;20039;-61
2021/06/21 15:33:02;;;;;;;1.33;0.40;;;;;;;;;;10331332;28;20500;-62
2021/06/21 15:37:59;;;;;;;2.10;0.63;;;;;;;;;;10343947;28;20047;-61
2021/06/21 15:42:58;;;;;;;0.90;0.60;;;;;;;;;;10322755;28;20036;-62
2021/06/21 15:47:56;;;;;;;1.38;0.98;;;;;;;;;;10327342;28;20466;-61
2021/06/21 15:52:55;;;;;;;1.10;0.75;;;;;;;;;;10326553;28;20460;-61
2021/06/21 15:57:52;;;;;;;;;;;;;;;;;;10339134;28;20477;-61
2021/06/21 16:02:54;;;;;;;3.83;1.17;;;;;;;;;;10335342;28;20292;-61
2021/06/21 16:07:52;;;;;;;4.20;1.10;;;;;;;;;;10333724;28;20500;-61
2021/06/21 16:12:50;;;;;;;3.80;1.40;;;;;;;;;;10324021;28;20396;-61
2021/06/21 16:17:48;;;;;;;5.23;1.30;;;;;;;;;;10321068;28;20288;-62
2021/06/21 16:22:45;;;;;;;;;;;;;;;;;;10333196;28;20039;-61
2021/06/21 16:27:43;;;;;;;5.63;1.42;;;;;;;;;;10328792;28;20439;-61
2021/06/21 16:32:41;;;;;;;7.03;1.50;;;;;;;;;;10332108;28;20051;-61
2021/06/21 16:37:38;;;;;;;4.73;1.70;;;;;;;;;;10338397;28;20044;-61
2021/06/21 16:42:36;;;;;;;5.50;1.90;;;;;;;;;;10341305;28;20177;-60
2021/06/21 16:47:33;;;;;;;5.80;2.37;;;;;;;;;;10317129;28;20480;-62
2021/06/21 16:52:31;;;;;;;3.57;1.90;;;;;;;;;;10316224;28;20024;-62
2021/06/21 16:57:29;;;;;;;3.75;1.70;;;;;;;;;;10299471;28;20045;-62
2021/06/21 17:02:26;;;;;;;7.33;2.20;;;;;;;;;;10342537;28;20040;-61
2021/06/21 17:07:24;;;;;;;5.67;1.60;;;;;;;;;;10338412;28;20040;-61
2021/06/21 17:12:21;;;;;;;6.93;2.37;;;;;;;;;;10307001;28;20041;-62
2021/06/21 17:17:19;;;;;;;5.20;2.67;;;;;;;;;;10312036;28;20143;-62
2021/06/21 17:22:17;;;;;;;4.33;1.73;;;;;;;;;;10290689;28;20531;-62
2021/06/21 17:27:14;;;;;;;8.17;3.00;;;;;;;;;;10299102;28;20434;-62
2021/06/21 17:32:12;;;;;;;9.87;3.23;;;;;;;;;;10305474;28;20064;-62
2021/06/21 17:37:11;;;;;;;8.57;2.63;;;;;;;;;;10298423;28;20049;-62
2021/06/21 17:42:08;;;;;;;10.30;3.17;;;;;;;;;;10304204;28;20136;-63
2021/06/21 17:47:06;;;;;;;9.80;2.83;;;;;;;;;;10293795;28;20452;-62
2021/06/21 17:52:03;;;;;;;8.23;2.67;;;;;;;;;;10293354;28;20045;-62
2021/06/21 17:57:01;;;;;;;8.83;3.23;;;;;;;;;;10299424;28;20504;-62
2021/06/21 18:01:59;;;;;;;5.97;3.13;;;;;;;;;;10293711;28;20041;-62
2021/06/21 18:06:56;;;;;;;11.70;3.77;;;;;;;;;;10301660;28;20048;-62
2021/06/21 18:11:54;;;;;;;10.97;3.07;;;;;;;;;;10299342;28;20037;-61
2021/06/21 18:16:51;;;;;;;9.30;2.77;;;;;;;;;;10291024;28;20053;-63
2021/06/21 18:21:49;;;;;;;8.87;2.50;;;;;;;;;;10289496;28;20040;-62
2021/06/21 18:26:47;;;;;;;6.17;2.73;;;;;;;;;;10301879;28;20041;-62
2021/06/21 18:31:45;;;;;;;8.75;2.92;;;;;;;;;;10293598;28;20132;-62
2021/06/21 18:36:42;;;;;;;8.73;2.90;;;;;;;;;;10285188;28;20036;-62
2021/06/21 18:41:40;;;;;;;5.73;1.53;;;;;;;;;;10299512;28;20068;-62
2021/06/21 18:46:37;;;;;;;10.27;3.40;;;;;;;;;;10306300;28;20037;-62
2021/06/21 18:51:35;;;;;;;7.70;2.87;;;;;;;;;;10299160;28;20037;-62
2021/06/21 18:56:32;;;;;;;6.30;2.40;;;;;;;;;;10288290;28;20069;-62
2021/06/21 19:01:30;;;;;;;4.77;1.83;;;;;;;;;;10295900;28;20029;-62
2021/06/21 19:06:28;;;;;;;4.67;2.37;;;;;;;;;;10297653;28;20110;-62
2021/06/21 19:11:26;;;;;;;;;;;;;;;;;;10295568;28;20417;-60
2021/06/21 19:16:24;;;;;;;9.00;3.33;;;;;;;;;;10289305;28;20394;-60
2021/06/21 19:21:21;;;;;;;10.20;3.30;;;;;;;;;;10297577;28;20060;-59
2021/06/21 19:26:19;;;;;;;5.87;2.77;;;;;;;;;;10289493;28;20618;-60
2021/06/21 19:31:17;;;;;;;9.10;1.97;;;;;;;;;;10306668;28;20764;-59
2021/06/21 19:36:14;;;;;;;6.13;2.60;;;;;;;;;;10279646;28;20400;-60
2021/06/21 19:41:12;;;;;;;6.20;2.90;;;;;;;;;;10277999;28;20033;-61
2021/06/21 19:46:09;;;;;;;3.43;1.73;;;;;;;;;;10288386;28;20029;-61
2021/06/21 19:51:07;;;;;;;6.60;2.70;;;;;;;;;;10282355;28;20435;-60
2021/06/21 19:56:04;;;;;;;3.00;1.40;;;;;;;;;;10282292;28;20154;-60
2021/06/21 20:01:03;;;;;;;4.57;1.47;;;;;;;;;;10306651;28;20037;-61
2021/06/21 20:06:00;;;;;;;2.28;1.30;;;;;;;;;;10292297;28;20416;-64
2021/06/21 20:10:58;;;;;;;4.53;1.73;;;;;;;;;;10285326;28;20056;-60
2021/06/21 20:15:55;;;;;;;6.27;1.63;;;;;;;;;;10296104;28;20743;-60
2021/06/21 20:20:53;;;;;;;4.03;1.77;;;;;;;;;;10295536;28;20293;-60
2021/06/21 20:25:50;;;;;;;8.47;2.07;;;;;;;;;;10302413;28;20404;-60
2021/06/21 20:30:48;;;;;;;2.40;1.57;;;;;;;;;;10292406;28;20044;-60
2021/06/21 20:35:50;;;;;;;5.87;2.27;;;;;;;;;;10283971;28;20179;-61
2021/06/21 20:40:48;;;;;;;5.18;2.20;;;;;;;;;;10281263;28;20583;-60
2021/06/21 20:45:45;;;;;;;6.67;2.40;;;;;;;;;;10304333;28;20401;-60
2021/06/21 20:50:43;;;;;;;6.40;2.53;;;;;;;;;;10315092;28;20040;-60
2021/06/21 20:55:41;;;;;;;9.93;3.43;;;;;;;;;;10342893;28;20032;-61
2021/06/21 21:00:41;;;;;;;7.83;3.07;;;;;;;;;;10346058;28;20033;-61
2021/06/21 21:05:39;;;;;;;12.23;3.10;;;;;;;;;;10317857;28;20025;-60
2021/06/21 21:10:37;;;;;;;4.50;2.70;;;;;;;;;;10295950;28;20029;-61
2021/06/21 21:15:34;;;;;;;9.40;2.70;;;;;;;;;;10281896;28;20342;-61
2021/06/21 21:20:32;;;;;;;8.53;3.27;;;;;;;;;;10292367;28;20432;-60
2021/06/21 21:25:29;;;;;;;7.47;2.37;;;;;;;;;;10304607;28;20092;-61
2021/06/21 21:30:27;;;;;;;6.60;2.07;;;;;;;;;;10287789;28;20037;-60
2021/06/21 21:35:27;;;;;;;8.27;3.33;;;;;;;;;;10277701;28;20747;-60
2021/06/21 21:40:24;;;;;;;7.35;2.70;;;;;;;;;;10303296;28;20052;-60
2021/06/21 21:45:22;;;;;;;9.60;2.80;;;;;;;;;;10312147;28;20037;-60
2021/06/21 21:50:19;;;;;;;13.33;3.63;;;;;;;;;;10287004;28;20044;-60
2021/06/21 21:55:30;;;;;;;6.30;2.57;;;;;;;;;;10283213;28;20051;-60
2021/06/21 22:00:29;;;;;;;6.47;2.83;;;;;;;;;;10293093;28;20051;-60
2021/06/21 22:05:27;;;;;;;6.13;2.60;;;;;;;;;;10303370;28;20037;-60
2021/06/21 22:10:25;;;;;;;9.93;3.03;;;;;;;;;;10295180;28;20029;-60
2021/06/21 22:15:22;;;;;;;10.37;2.57;;;;;;;;;;10304363;28;20033;-60
2021/06/21 22:20:21;;;;;;;6.33;2.80;;;;;;;;;;10294359;28;20401;-60
2021/06/21 22:25:18;;;;;;;7.45;2.78;;;;;;;;;;10343569;28;20063;-61
2021/06/21 22:30:17;;;;;;;6.70;2.80;;;;;;;;;;10363363;28;20036;-59
2021/06/21 22:35:14;;;;;;;5.75;2.65;;;;;;;;;;10305139;28;20039;-60
2021/06/21 22:40:12;;;;;;;9.03;3.37;;;;;;;;;;10330770;28;20036;-60
2021/06/21 22:45:10;;;;;;;13.60;3.67;;;;;;;;;;10318358;28;20083;-60
2021/06/21 22:50:09;;;;;;;5.78;3.38;;;;;;;;;;10330311;28;20346;-60
2021/06/21 22:55:11;;;;;;;4.63;2.45;;;;;;;;;;10313782;28;20040;-60
2021/06/21 23:00:12;;;;;;;8.50;3.10;;;;;;;;;;10336176;28;20516;-59
2021/06/21 23:05:12;;;;;;;8.88;2.80;;;;;;;;;;10340248;28;20037;-60
2021/06/21 23:10:10;;;;;;;9.60;3.17;;;;;;;;;;10322523;28;20041;-62
2021/06/21 23:15:10;;;;;;;10.00;3.50;;;;;;;;;;10356517;28;20020;-62
2021/06/21 23:20:09;;;;;;;7.65;3.08;;;;;;;;;;10333759;28;20448;-62
2021/06/21 23:25:09;;;;;;;8.20;2.75;;;;;;;;;;10345548;28;20052;-61
2021/06/21 23:30:07;;;;;;;8.27;3.03;;;;;;;;;;10350023;28;20044;-59
2021/06/21 23:35:05;;;;;;;7.53;3.38;;;;;;;;;;10346588;28;20020;-60
2021/06/21 23:40:03;;;;;;;9.57;3.50;;;;;;;;;;10338287;28;20418;-61
2021/06/21 23:45:02;;;;;;;9.07;3.67;;;;;;;;;;10333532;28;20193;-61
2021/06/21 23:50:04;;;;;;;10.25;3.35;;;;;;;;;;10354557;28;20090;-61
2021/06/21 23:55:03;;;;;;;7.95;3.30;;;;;;;;;;10344754;28;20020;-60
